HEL weather

Helsinki Vantaa Airport
Helsinki, Southern Finland, Finland

Public forecast

Using degrees Celsius for public forecast. Weather courtesy of forecast.io.

Current aviation weather report (METAR) for Helsinki Vantaa Airport

Retrieved 2019/10/20 02:20 UTC (0 seconds ago):

EFHK 200220Z 23005KT 9999 BKN020 09/08 Q1012 NOSIG

Aviation forecast (TAF) for Helsinki Vantaa Airport

Retrieved 2019-10-20 03:45 UTC (0 seconds ago):

TAF COR EFHK 200242Z 2003/2103 24005KT 9999 SCT020 TEMPO 2004/2009 2000 BR BKN012 PROB40 TEMPO 2004/2009 0400 FG VV001 BECMG 2009/2011 7000 -RADZ BKN004 TEMPO 2011/2019 4000 RA BKN010 TEMPO 2019/2024 4000 SHRA BKN010 FEW050CB BECMG 2100/2102 8000 BKN017